createdAt,value
2019-02-17T00:04:24.078Z,14.67
2019-02-17T00:06:52.624Z,15.53
2019-02-17T00:09:27.398Z,13.73
2019-02-17T00:11:58.991Z,12.77
2019-02-17T00:14:27.595Z,14.57
2019-02-17T00:16:59.103Z,13.27
2019-02-17T00:19:27.731Z,12.80
2019-02-17T00:21:56.334Z,14.50
2019-02-17T00:24:24.945Z,14.80
2019-02-17T00:26:55.495Z,14.00
2019-02-17T00:29:26.825Z,12.77
2019-02-17T00:31:58.449Z,13.67
2019-02-17T00:34:29.931Z,12.37
2019-02-17T00:37:01.681Z,13.10
2019-02-17T00:39:33.391Z,12.20
2019-02-17T00:42:04.767Z,11.40
2019-02-17T00:44:33.491Z,11.00
2019-02-17T00:47:05.052Z,12.43
2019-02-17T00:49:33.680Z,12.10
2019-02-17T00:52:05.160Z,11.63
2019-02-17T00:54:33.728Z,12.80
2019-02-17T00:57:04.989Z,11.50
2019-02-17T00:59:33.671Z,11.27
2019-02-17T01:02:02.686Z,11.40
2019-02-17T01:04:31.258Z,10.83
2019-02-17T01:07:02.774Z,10.50
2019-02-17T01:09:31.650Z,10.07
2019-02-17T01:12:02.962Z,10.30
2019-02-17T01:14:31.568Z,9.80
2019-02-17T01:17:00.124Z,10.73
2019-02-17T01:19:31.776Z,11.80
2019-02-17T01:22:03.559Z,11.37
2019-02-17T01:24:32.317Z,11.07
2019-02-17T01:27:03.774Z,11.40
2019-02-17T01:29:32.584Z,11.57
2019-02-17T01:32:04.277Z,12.37
2019-02-17T01:34:32.866Z,11.10
2019-02-17T01:37:04.288Z,12.07
2019-02-17T01:39:36.045Z,12.57
2019-02-17T01:42:07.735Z,12.47
2019-02-17T01:44:39.195Z,12.30
2019-02-17T01:47:10.706Z,10.63
2019-02-17T01:49:39.303Z,9.23
2019-02-17T01:52:10.985Z,9.27
2019-02-17T01:54:39.596Z,10.30
2019-02-17T01:57:08.547Z,11.17
2019-02-17T01:59:40.290Z,11.10
2019-02-17T02:02:08.907Z,10.57
2019-02-17T02:04:37.483Z,9.80
2019-02-17T02:07:06.126Z,9.80
2019-02-17T02:09:38.112Z,11.20
2019-02-17T02:12:09.704Z,10.40
2019-02-17T02:14:38.315Z,9.07
2019-02-17T02:17:09.604Z,8.60
2019-02-17T02:19:41.187Z,9.63
2019-02-17T02:22:12.574Z,9.57
2019-02-17T02:24:44.152Z,9.70
2019-02-17T02:27:15.524Z,10.73
2019-02-17T02:29:44.133Z,8.80
2019-02-17T02:32:15.715Z,9.53
2019-02-17T02:34:44.640Z,9.10
2019-02-17T02:37:13.249Z,9.13
2019-02-17T02:39:44.726Z,9.77
2019-02-17T02:42:16.323Z,9.43
2019-02-17T02:44:44.926Z,9.30
2019-02-17T02:47:13.534Z,10.00
2019-02-17T02:49:47.573Z,10.53
2019-02-17T02:52:18.944Z,8.40
2019-02-17T02:54:50.521Z,8.83
2019-02-17T02:57:22.208Z,9.40
2019-02-17T02:59:52.630Z,9.63
2019-02-17T03:02:25.694Z,9.07
2019-02-17T03:04:55.584Z,9.00
2019-02-17T03:07:27.017Z,9.07
2019-02-17T03:09:58.390Z,9.57
2019-02-17T03:12:30.079Z,8.67
2019-02-17T03:14:58.698Z,8.63
2019-02-17T03:17:30.383Z,8.67
2019-02-17T03:19:58.936Z,9.60
2019-02-17T03:22:30.873Z,9.57
2019-02-17T03:24:59.741Z,10.83
2019-02-17T03:27:31.269Z,9.10
2019-02-17T03:30:04.742Z,9.43
2019-02-17T03:32:33.406Z,8.33
2019-02-17T03:35:02.015Z,10.27
2019-02-17T03:37:30.589Z,8.30
2019-02-17T03:40:01.912Z,8.60
2019-02-17T03:42:33.383Z,8.60
2019-02-17T03:45:07.267Z,9.53
2019-02-17T03:47:38.597Z,9.77
2019-02-17T03:50:08.392Z,9.83
2019-02-17T03:52:39.908Z,8.60
2019-02-17T03:55:08.616Z,10.50
2019-02-17T03:57:40.006Z,8.63
2019-02-17T04:00:16.866Z,10.50
2019-02-17T04:02:41.933Z,9.50
2019-02-17T04:05:13.310Z,8.93
2019-02-17T04:07:41.915Z,8.63
2019-02-17T04:10:13.293Z,9.00
2019-02-17T04:12:42.107Z,8.30
2019-02-17T04:15:13.390Z,8.90
2019-02-17T04:17:44.690Z,11.20
2019-02-17T04:20:16.435Z,10.47
2019-02-17T04:22:47.708Z,10.20
2019-02-17T04:25:16.315Z,9.47
2019-02-17T04:27:47.894Z,8.37
2019-02-17T04:30:28.638Z,9.57
2019-02-17T04:32:54.199Z,10.03
2019-02-17T04:35:22.759Z,10.60
2019-02-17T04:37:51.386Z,10.43
2019-02-17T04:40:19.987Z,9.97
2019-02-17T04:42:48.570Z,11.40
2019-02-17T04:45:20.043Z,10.47
2019-02-17T04:47:51.574Z,10.70
2019-02-17T04:50:26.481Z,9.30
2019-02-17T04:52:57.760Z,10.55
2019-02-17T04:55:26.407Z,9.67
2019-02-17T04:57:57.691Z,12.00
2019-02-17T05:00:39.199Z,10.10
2019-02-17T05:03:02.079Z,10.30
2019-02-17T05:05:30.675Z,9.28
2019-02-17T05:08:02.257Z,10.57
2019-02-17T05:10:33.629Z,7.60
2019-02-17T05:13:05.108Z,9.57
2019-02-17T05:15:36.684Z,8.80
2019-02-17T05:18:08.263Z,9.25
2019-02-17T05:20:37.284Z,9.25
2019-02-17T05:23:08.859Z,10.33
2019-02-17T05:25:37.589Z,8.53
2019-02-17T05:28:08.965Z,8.98
2019-02-17T05:30:37.912Z,10.10
2019-02-17T05:33:09.420Z,8.38
2019-02-17T05:35:37.995Z,9.20
2019-02-17T05:38:09.569Z,7.78
2019-02-17T05:40:41.013Z,7.70
2019-02-17T05:43:09.625Z,7.20
2019-02-17T05:45:41.218Z,8.73
2019-02-17T05:48:12.601Z,8.95
2019-02-17T05:50:41.200Z,8.90
2019-02-17T05:53:12.617Z,9.45
2019-02-17T05:55:44.116Z,10.05
2019-02-17T05:58:15.681Z,10.80
2019-02-17T06:00:47.824Z,9.48
2019-02-17T06:03:19.382Z,9.08
2019-02-17T06:05:48.025Z,8.68
2019-02-17T06:08:19.807Z,9.18
2019-02-17T06:10:48.372Z,9.20
2019-02-17T06:13:20.100Z,8.58
2019-02-17T06:15:48.668Z,9.65
2019-02-17T06:18:20.392Z,9.15
2019-02-17T06:20:53.827Z,9.10
2019-02-17T06:23:25.611Z,9.00
2019-02-17T06:25:55.882Z,10.75
2019-02-17T06:28:30.623Z,10.85
2019-02-17T06:31:02.135Z,9.78
2019-02-17T06:33:33.644Z,10.18
2019-02-17T06:36:02.297Z,10.25
2019-02-17T06:38:33.872Z,9.90
2019-02-17T06:41:05.856Z,8.80
2019-02-17T06:43:37.396Z,9.23
2019-02-17T06:46:10.344Z,9.17
2019-02-17T06:48:39.060Z,9.20
2019-02-17T06:51:07.650Z,10.23
2019-02-17T06:53:39.229Z,9.87
2019-02-17T06:56:24.350Z,9.10
2019-02-17T06:58:55.642Z,11.00
2019-02-17T07:01:27.377Z,10.00
2019-02-17T07:03:56.414Z,9.33
2019-02-17T07:06:26.624Z,10.73
2019-02-17T07:08:55.186Z,9.73
2019-02-17T07:11:23.919Z,9.83
2019-02-17T07:13:55.412Z,9.33
2019-02-17T07:16:25.572Z,10.32
2019-02-17T07:18:56.880Z,10.60
2019-02-17T07:21:25.885Z,9.13
2019-02-17T07:23:57.395Z,10.43
2019-02-17T07:26:26.080Z,10.63
2019-02-17T07:28:54.653Z,11.33
2019-02-17T07:31:34.398Z,10.53
2019-02-17T07:33:55.267Z,11.60
2019-02-17T07:36:26.877Z,11.10
2019-02-17T07:38:55.527Z,13.17
2019-02-17T07:41:26.110Z,10.50
2019-02-17T07:43:57.670Z,10.70
2019-02-17T07:46:26.328Z,9.93
2019-02-17T07:48:57.996Z,10.50
2019-02-17T07:51:26.982Z,9.50
2019-02-17T07:53:58.258Z,10.77
2019-02-17T07:56:29.996Z,9.03
2019-02-17T07:58:58.570Z,10.63
2019-02-17T08:01:27.222Z,11.30
2019-02-17T08:03:58.946Z,9.47
2019-02-17T08:06:28.723Z,10.27
2019-02-17T08:09:00.271Z,9.57
2019-02-17T08:11:28.860Z,9.30
2019-02-17T08:13:57.409Z,9.90
2019-02-17T08:16:29.066Z,9.07
2019-02-17T08:18:57.687Z,10.07
2019-02-17T08:21:26.266Z,9.57
2019-02-17T08:23:58.001Z,10.03
2019-02-17T08:26:26.636Z,9.73
2019-02-17T08:28:58.215Z,11.00
2019-02-17T08:31:27.077Z,11.13
2019-02-17T08:33:58.629Z,10.27
2019-02-17T08:36:27.215Z,10.03
2019-02-17T08:38:55.805Z,9.60
2019-02-17T08:41:30.184Z,10.30
2019-02-17T08:44:01.674Z,9.33
2019-02-17T08:46:30.267Z,10.00
2019-02-17T08:49:01.799Z,10.73
2019-02-17T08:51:33.153Z,10.13
2019-02-17T08:54:02.035Z,10.23
2019-02-17T08:56:30.618Z,10.40
2019-02-17T08:58:59.496Z,9.80
2019-02-17T09:01:28.072Z,9.80
2019-02-17T09:03:56.626Z,9.77
2019-02-17T09:06:28.139Z,9.67
2019-02-17T09:08:57.424Z,9.53
2019-02-17T09:11:26.349Z,10.80
2019-02-17T09:13:57.930Z,9.47
2019-02-17T09:16:26.511Z,10.00
2019-02-17T09:18:58.064Z,8.97
2019-02-17T09:21:29.560Z,10.00
2019-02-17T09:23:58.132Z,10.00
2019-02-17T09:26:29.863Z,10.83
2019-02-17T09:29:01.148Z,11.00
2019-02-17T09:31:29.727Z,9.70
2019-02-17T09:34:01.385Z,10.90
2019-02-17T09:36:29.979Z,10.10
2019-02-17T09:39:01.557Z,10.20
2019-02-17T09:41:33.218Z,9.80
2019-02-17T09:44:05.232Z,9.97
2019-02-17T09:46:36.892Z,9.90
2019-02-17T09:49:08.721Z,9.87
2019-02-17T09:51:37.733Z,11.60
2019-02-17T09:54:06.292Z,8.90
2019-02-17T09:56:37.557Z,11.47
2019-02-17T09:59:08.792Z,10.33
2019-02-17T10:01:42.633Z,10.80
2019-02-17T10:04:10.986Z,9.60
2019-02-17T10:06:39.654Z,10.17
2019-02-17T10:09:08.638Z,10.97
2019-02-17T10:11:37.223Z,10.30
2019-02-17T10:14:05.779Z,11.07
2019-02-17T10:16:34.348Z,10.00
2019-02-17T10:19:02.993Z,10.73
2019-02-17T10:21:31.620Z,10.47
2019-02-17T10:24:03.306Z,9.80
2019-02-17T10:26:31.921Z,9.53
2019-02-17T10:29:00.473Z,9.77
2019-02-17T10:31:31.745Z,10.80
2019-02-17T10:34:02.991Z,11.60
2019-02-17T10:36:34.279Z,10.37
2019-02-17T10:39:07.174Z,11.40
2019-02-17T10:41:38.688Z,10.93
2019-02-17T10:44:08.878Z,10.57
2019-02-17T10:46:40.415Z,11.17
2019-02-17T10:49:11.999Z,10.70
2019-02-17T10:51:43.340Z,11.70
2019-02-17T10:54:15.586Z,10.57
2019-02-17T10:56:44.142Z,10.47
2019-02-17T10:59:15.394Z,10.10
2019-02-17T11:01:47.116Z,10.63
2019-02-17T11:04:18.622Z,12.07
2019-02-17T11:06:48.228Z,9.90
2019-02-17T11:09:20.304Z,11.33
2019-02-17T11:11:48.937Z,11.07
2019-02-17T11:14:20.459Z,10.77
2019-02-17T11:16:49.360Z,10.50
2019-02-17T11:19:17.944Z,10.27
2019-02-17T11:21:46.572Z,10.77
2019-02-17T11:24:18.867Z,10.67
2019-02-17T11:26:50.506Z,10.17
2019-02-17T11:29:19.105Z,11.10
2019-02-17T11:31:50.422Z,10.50
2019-02-17T11:34:23.200Z,11.23
2019-02-17T11:36:53.696Z,11.10
2019-02-17T11:39:23.331Z,12.57
2019-02-17T11:41:54.783Z,12.97
2019-02-17T11:44:24.884Z,11.33
2019-02-17T11:46:56.286Z,12.80
2019-02-17T11:49:28.051Z,11.70
2019-02-17T11:51:56.606Z,12.63
2019-02-17T11:54:28.116Z,11.43
2019-02-17T11:56:56.675Z,12.27
2019-02-17T11:59:28.212Z,12.87
2019-02-17T12:01:59.838Z,11.40
2019-02-17T12:04:31.632Z,12.67
2019-02-17T12:07:02.865Z,11.30
2019-02-17T12:09:31.910Z,12.93
2019-02-17T12:12:00.473Z,12.40
2019-02-17T12:14:31.669Z,10.93
2019-02-17T12:17:03.228Z,11.30
2019-02-17T12:19:34.875Z,10.33
2019-02-17T12:22:07.785Z,12.20
2019-02-17T12:24:40.656Z,12.40
2019-02-17T12:27:15.029Z,10.70
2019-02-17T12:29:45.255Z,11.00
2019-02-17T12:32:13.838Z,10.90
2019-02-17T12:34:45.918Z,11.40
2019-02-17T12:37:17.143Z,16.30
2019-02-17T12:39:48.463Z,11.60
2019-02-17T12:42:17.028Z,11.13
2019-02-17T12:44:48.610Z,11.30
2019-02-17T12:47:17.184Z,10.87
2019-02-17T12:49:48.881Z,11.77
2019-02-17T12:52:17.430Z,10.87
2019-02-17T12:54:46.069Z,11.00
2019-02-17T12:57:17.579Z,10.70
2019-02-17T12:59:46.477Z,11.30
2019-02-17T13:02:17.716Z,10.13
2019-02-17T13:04:49.009Z,9.47
2019-02-17T13:07:20.717Z,9.43
2019-02-17T13:09:53.179Z,10.50
2019-02-17T13:12:24.763Z,9.80
2019-02-17T13:14:56.210Z,9.20
2019-02-17T13:17:24.777Z,10.00
2019-02-17T13:19:54.955Z,9.40
2019-02-17T13:22:26.332Z,9.37
2019-02-17T13:24:57.622Z,10.53
2019-02-17T13:27:29.583Z,8.93
2019-02-17T13:30:00.997Z,8.30
2019-02-17T13:32:29.549Z,9.50
2019-02-17T13:35:01.954Z,9.57
2019-02-17T13:37:33.216Z,7.70
2019-02-17T13:40:06.664Z,8.90
2019-02-17T13:42:37.947Z,9.23
2019-02-17T13:45:12.170Z,8.90
2019-02-17T13:47:40.731Z,9.00
2019-02-17T13:50:17.304Z,9.33
2019-02-17T13:52:46.077Z,8.43
2019-02-17T13:55:14.945Z,9.90
2019-02-17T13:57:43.509Z,10.20
2019-02-17T14:00:17.756Z,9.50
2019-02-17T14:02:47.009Z,8.50
2019-02-17T14:05:18.407Z,9.40
2019-02-17T14:07:46.960Z,9.60
2019-02-17T14:10:15.606Z,10.00
2019-02-17T14:12:44.171Z,8.20
2019-02-17T14:15:18.184Z,9.27
2019-02-17T14:17:46.997Z,9.30
2019-02-17T14:20:18.560Z,8.60
2019-02-17T14:22:50.014Z,10.07
2019-02-17T14:25:18.596Z,8.60
2019-02-17T14:27:47.155Z,7.90
2019-02-17T14:30:19.766Z,8.50
2019-02-17T14:32:52.736Z,7.77
2019-02-17T14:35:21.362Z,7.80
2019-02-17T14:37:52.933Z,7.43
2019-02-17T14:40:23.419Z,7.80
2019-02-17T14:42:55.458Z,9.30
2019-02-17T14:45:25.667Z,7.60
2019-02-17T14:47:57.012Z,8.30
2019-02-17T14:50:28.593Z,8.43
2019-02-17T14:52:57.152Z,8.67
2019-02-17T14:55:25.741Z,8.23
2019-02-17T14:58:04.944Z,8.50
2019-02-17T15:00:27.692Z,8.57
2019-02-17T15:02:59.215Z,8.03
2019-02-17T15:05:27.876Z,7.83
2019-02-17T15:07:56.627Z,8.50
2019-02-17T15:10:25.552Z,9.20
2019-02-17T15:12:57.047Z,8.23
2019-02-17T15:15:25.605Z,9.80
2019-02-17T15:17:57.160Z,7.63
2019-02-17T15:20:25.886Z,8.30
2019-02-17T15:22:54.584Z,8.23
2019-02-17T15:25:23.301Z,8.30
2019-02-17T15:27:54.962Z,8.70
2019-02-17T15:30:26.698Z,8.07
2019-02-17T15:33:03.901Z,8.23
2019-02-17T15:35:28.453Z,8.33
2019-02-17T15:37:59.723Z,8.97
2019-02-17T15:40:28.287Z,10.63
2019-02-17T15:42:56.946Z,9.20
2019-02-17T15:45:25.571Z,9.60
2019-02-17T15:47:54.602Z,10.53
2019-02-17T15:50:23.481Z,10.20
2019-02-17T15:52:52.675Z,10.90
2019-02-17T15:55:21.634Z,13.07
2019-02-17T15:57:53.729Z,13.03
2019-02-17T16:00:23.967Z,12.82
2019-02-17T16:02:55.327Z,13.70
2019-02-17T16:05:24.283Z,14.00
2019-02-17T16:07:55.880Z,13.00
2019-02-17T16:10:24.904Z,12.30
2019-02-17T16:12:56.208Z,12.67
2019-02-17T16:15:28.487Z,11.90
2019-02-17T16:17:58.711Z,10.43
2019-02-17T16:20:27.278Z,10.20
2019-02-17T16:22:58.531Z,11.20
2019-02-17T16:25:27.099Z,11.83
2019-02-17T16:27:58.611Z,12.53
2019-02-17T16:30:27.342Z,11.37
2019-02-17T16:32:55.933Z,12.63
2019-02-17T16:35:24.585Z,12.77
2019-02-17T16:37:53.208Z,13.97
2019-02-17T16:40:24.715Z,14.80
2019-02-17T16:42:55.826Z,14.60
2019-02-17T16:45:24.987Z,15.30
2019-02-17T16:47:54.700Z,15.77
2019-02-17T16:50:31.534Z,17.47
2019-02-17T16:53:02.939Z,18.67
2019-02-17T16:55:31.497Z,19.87
2019-02-17T16:58:00.084Z,19.13
2019-02-17T17:00:31.287Z,21.87
2019-02-17T17:03:02.573Z,19.40
2019-02-17T17:05:34.765Z,20.57
2019-02-17T17:08:03.400Z,18.93
2019-02-17T17:10:33.000Z,19.77
2019-02-17T17:13:01.563Z,18.03
2019-02-17T17:15:30.127Z,15.30
2019-02-17T17:17:58.704Z,14.00
2019-02-17T17:20:30.297Z,12.60
2019-02-17T17:23:02.173Z,11.07
2019-02-17T17:25:30.801Z,10.40
2019-02-17T17:27:59.391Z,10.63
2019-02-17T17:30:27.957Z,10.40
2019-02-17T17:32:59.513Z,11.80
2019-02-17T17:35:28.480Z,9.70
2019-02-17T17:37:57.071Z,11.50
2019-02-17T17:40:25.635Z,10.00
2019-02-17T17:42:56.895Z,10.03
2019-02-17T17:45:25.464Z,12.03
2019-02-17T17:47:56.979Z,11.07
2019-02-17T17:50:25.538Z,12.17
2019-02-17T17:52:57.603Z,11.47
2019-02-17T17:55:28.371Z,12.43
2019-02-17T17:57:59.385Z,12.10
2019-02-17T18:00:29.646Z,11.90
2019-02-17T18:03:01.245Z,12.30
2019-02-17T18:05:29.881Z,11.60
2019-02-17T18:08:01.378Z,13.10
2019-02-17T18:10:30.270Z,11.70
2019-02-17T18:12:58.844Z,12.80
2019-02-17T18:15:27.788Z,13.47
2019-02-17T18:17:56.353Z,14.00
2019-02-17T18:20:27.625Z,15.40
2019-02-17T18:22:59.234Z,16.23
2019-02-17T18:25:28.343Z,15.70
2019-02-17T18:27:56.908Z,14.40
2019-02-17T18:30:25.493Z,16.70
2019-02-17T18:32:58.438Z,19.67
2019-02-17T18:35:27.009Z,19.07
2019-02-17T18:37:55.946Z,21.40
2019-02-17T18:40:24.567Z,21.30
2019-02-17T18:42:56.308Z,20.77
2019-02-17T18:45:24.968Z,20.33
2019-02-17T18:47:56.541Z,20.80
2019-02-17T18:50:28.518Z,20.00
2019-02-17T18:52:59.764Z,24.17
2019-02-17T18:55:28.353Z,20.77
2019-02-17T18:57:59.585Z,18.37
2019-02-17T19:00:28.549Z,18.23
2019-02-17T19:02:57.124Z,15.63
2019-02-17T19:05:31.920Z,16.47
2019-02-17T19:07:59.041Z,17.60
2019-02-17T19:10:28.532Z,16.20
2019-02-17T19:13:00.038Z,16.33
2019-02-17T19:15:28.627Z,14.83
2019-02-17T19:17:57.274Z,15.70
2019-02-17T19:20:28.841Z,14.73
2019-02-17T19:23:00.744Z,13.87
2019-02-17T19:25:29.769Z,14.10
2019-02-17T19:28:03.719Z,15.30
2019-02-17T19:30:32.497Z,14.50
2019-02-17T19:33:04.533Z,15.83
2019-02-17T19:35:41.485Z,14.07
2019-02-17T19:38:09.297Z,15.30
2019-02-17T19:40:42.372Z,14.17
2019-02-17T19:43:13.641Z,14.73
2019-02-17T19:45:45.453Z,17.30
2019-02-17T19:48:16.676Z,15.17
2019-02-17T19:50:48.047Z,16.33
2019-02-17T19:53:19.612Z,13.43
2019-02-17T19:55:53.194Z,13.90
2019-02-17T19:58:27.438Z,15.37
2019-02-17T20:00:56.181Z,14.77
2019-02-17T20:03:47.554Z,14.40
2019-02-17T20:06:20.650Z,15.57
2019-02-17T20:08:54.748Z,15.73
2019-02-17T20:11:24.846Z,13.70
2019-02-17T20:13:56.127Z,14.87
2019-02-17T20:16:27.962Z,15.10
2019-02-17T20:18:56.523Z,15.73
2019-02-17T20:21:27.776Z,16.93
2019-02-17T20:23:56.340Z,15.17
2019-02-17T20:26:25.386Z,14.73
2019-02-17T20:28:57.278Z,16.40
2019-02-17T20:31:30.285Z,17.53
2019-02-17T20:33:58.845Z,15.30
2019-02-17T20:36:30.656Z,14.40
2019-02-17T20:39:01.927Z,16.37
2019-02-17T20:41:33.846Z,14.73
2019-02-17T20:44:02.407Z,14.40
2019-02-17T20:46:33.960Z,15.37
2019-02-17T20:49:02.523Z,16.13
2019-02-17T20:51:31.110Z,15.97
2019-02-17T20:53:59.953Z,15.80
2019-02-17T20:56:31.699Z,13.33
2019-02-17T20:59:00.258Z,13.20
2019-02-17T21:01:31.820Z,15.57
2019-02-17T21:04:03.377Z,14.37
2019-02-17T21:06:32.302Z,15.50
2019-02-17T21:09:04.594Z,16.57
2019-02-17T21:11:33.259Z,15.40
2019-02-17T21:14:04.599Z,14.87
2019-02-17T21:16:36.319Z,16.40
2019-02-17T21:19:07.812Z,16.07
2019-02-17T21:21:39.142Z,17.97
2019-02-17T21:24:10.517Z,16.37
2019-02-17T21:26:41.802Z,15.67
2019-02-17T21:29:13.072Z,13.50
2019-02-17T21:31:41.711Z,14.43
2019-02-17T21:34:13.919Z,17.33
2019-02-17T21:36:43.754Z,15.13
2019-02-17T21:39:12.555Z,15.70
2019-02-17T21:41:41.536Z,15.47
2019-02-17T21:44:10.090Z,15.03
2019-02-17T21:46:41.402Z,14.50
2019-02-17T21:49:10.371Z,14.33
2019-02-17T21:51:41.972Z,15.03
2019-02-17T21:54:14.058Z,16.00
2019-02-17T21:56:45.410Z,14.80
2019-02-17T21:59:13.985Z,15.90
2019-02-17T22:01:45.292Z,19.67
2019-02-17T22:04:17.589Z,17.70
2019-02-17T22:06:49.068Z,17.80
2019-02-17T22:09:20.973Z,18.23
2019-02-17T22:11:49.607Z,16.27
2019-02-17T22:14:23.075Z,16.93
2019-02-17T22:16:54.086Z,15.23
2019-02-17T22:19:25.346Z,19.40
2019-02-17T22:21:57.186Z,17.77
2019-02-17T22:24:25.814Z,17.10
2019-02-17T22:27:00.193Z,17.57
2019-02-17T22:29:31.570Z,17.00
2019-02-17T22:32:02.873Z,16.10
2019-02-17T22:34:31.498Z,15.10
2019-02-17T22:37:02.825Z,15.77
2019-02-17T22:39:31.842Z,17.50
2019-02-17T22:42:03.230Z,15.83
2019-02-17T22:44:31.853Z,15.40
2019-02-17T22:47:03.503Z,15.30
2019-02-17T22:49:34.943Z,16.63
2019-02-17T22:52:06.424Z,16.40
2019-02-17T22:54:39.464Z,15.30
2019-02-17T22:57:10.088Z,16.57
2019-02-17T22:59:42.160Z,17.20
2019-02-17T23:02:14.071Z,15.80
2019-02-17T23:04:42.704Z,15.50
2019-02-17T23:07:11.259Z,18.20
2019-02-17T23:09:39.955Z,15.77
2019-02-17T23:12:09.086Z,16.50
2019-02-17T23:14:37.710Z,14.70
2019-02-17T23:17:09.802Z,15.90
2019-02-17T23:19:41.417Z,16.23
2019-02-17T23:22:12.787Z,16.43
2019-02-17T23:24:41.511Z,16.77
2019-02-17T23:27:13.082Z,16.40
2019-02-17T23:29:44.463Z,15.67
2019-02-17T23:32:13.078Z,16.90
2019-02-17T23:34:44.691Z,15.67
2019-02-17T23:37:16.200Z,17.47
2019-02-17T23:39:44.869Z,16.67
2019-02-17T23:42:13.570Z,16.93
2019-02-17T23:44:42.615Z,14.40
2019-02-17T23:47:13.991Z,15.73
2019-02-17T23:49:43.849Z,15.07
2019-02-17T23:52:15.396Z,15.30
2019-02-17T23:54:46.858Z,17.70
2019-02-17T23:57:18.555Z,17.07
2019-02-17T23:59:50.037Z,16.90
